Terminal Aerodrome Forecast
Issued by NWS

Home | Current Version | Previous Version | Text Only | Print | Product List | Glossary Off
Versions: 1 2 3 4 5 6 7 8 9 10 11 12 13 14 15

000
FTUS43 KOAX 150525
TAFCDR
TAF
KCDR 150525Z 1506/1606 24005KT P6SM SCT200
     FM151500 35009KT P6SM VCSH BKN020
     FM151800 35009KT 2SM -SN OVC012
     FM160000 01010KT P6SM BKN035=

USA.gov is the U.S. government's official web portal to all federal, state and local government web resources and services.